Time;durP1;ratioP1;P1;durP2;ratioP2;P2;SDS_P1;SDS_P2;PMS_P1;PMS_P2;Temp;Humidity;BMP_temperature;BMP_pressure;BME280_temperature;BME280_humidity;BME280_pressure;Samples;Min_cycle;Max_cycle;Signal;HPM_P1;HPM_P2
2022/04/25 00:01:36;;;;;;;13.07;3.67;;;;;;;19.24;51.15;101731.88;5033590;28;20040;-58
2022/04/25 00:04:03;;;;;;;18.05;3.58;;;;;;;18.95;51.59;101730.22;5033461;28;20049;-57
2022/04/25 00:06:30;;;;;;;12.45;3.20;;;;;;;18.79;51.35;101733.69;5033268;28;20062;-59
2022/04/25 00:08:57;;;;;;;11.80;3.50;;;;;;;18.62;53.89;101730.84;5033092;28;20032;-59
2022/04/25 00:11:23;;;;;;;14.65;3.42;;;;;;;18.39;51.97;101728.97;5033696;28;20470;-59
2022/04/25 00:13:49;;;;;;;13.80;3.00;;;;;;;18.40;52.46;101715.19;5033602;28;20029;-59
2022/04/25 00:16:18;;;;;;;17.73;3.65;;;;;;;17.66;54.26;101728.28;5033285;28;20033;-58
2022/04/25 00:18:47;;;;;;;18.02;3.88;;;;;;;17.75;53.47;101722.56;5033306;28;20101;-61
2022/04/25 00:21:13;;;;;;;19.50;3.55;;;;;;;17.94;54.82;101721.44;5033149;28;20052;-58
2022/04/25 00:23:39;;;;;;;30.05;3.88;;;;;;;17.71;54.60;101722.16;5033719;28;20025;-58
2022/04/25 00:26:06;;;;;;;11.23;3.33;;;;;;;17.39;54.62;101722.44;5033283;28;20103;-58
2022/04/25 00:28:34;;;;;;;17.17;3.28;;;;;;;17.12;55.69;101713.84;5031253;28;20433;-56
2022/04/25 00:31:01;;;;;;;13.13;4.03;;;;;;;17.20;55.72;101711.88;5032393;28;20043;-58
2022/04/25 00:33:27;;;;;;;14.57;3.25;;;;;;;17.15;55.03;101721.47;5032241;28;20021;-57
2022/04/25 00:35:53;;;;;;;20.45;3.30;;;;;;;17.48;55.03;101712.09;5032698;28;20072;-58
2022/04/25 00:38:20;;;;;;;18.05;4.25;;;;;;;16.97;55.41;101713.41;5032665;28;20037;-58
2022/04/25 00:40:46;;;;;;;16.38;3.63;;;;;;;17.26;55.96;101708.25;5031615;28;20021;-57
2022/04/25 00:43:13;;;;;;;11.75;3.17;;;;;;;17.27;56.06;101707.22;5032207;28;20026;-58
2022/04/25 00:45:39;;;;;;;18.58;3.53;;;;;;;17.21;55.67;101700.81;5032088;28;20075;-58
2022/04/25 00:48:06;;;;;;;16.75;3.30;;;;;;;17.24;55.69;101710.34;5032581;28;20044;-58
2022/04/25 00:50:32;;;;;;;18.02;4.43;;;;;;;17.19;55.24;101702.91;5032042;28;20024;-57
2022/04/25 00:52:59;;;;;;;12.85;3.15;;;;;;;17.17;55.49;101699.63;5031957;28;20038;-58
2022/04/25 00:55:26;;;;;;;15.65;4.22;;;;;;;17.41;56.07;101697.81;5031817;28;20432;-59
2022/04/25 00:57:56;;;;;;;10.10;2.97;;;;;;;17.30;54.81;101701.31;5031981;28;20030;-58
2022/04/25 01:00:23;;;;;;;11.40;3.10;;;;;;;17.10;54.39;101697.03;5032012;28;20447;-58
2022/04/25 01:02:49;;;;;;;13.18;2.97;;;;;;;17.42;53.96;101700.28;5031779;28;20029;-58
2022/04/25 01:05:15;;;;;;;12.98;3.47;;;;;;;17.73;55.67;101684.06;5031969;28;20104;-58
2022/04/25 01:07:42;;;;;;;16.30;2.95;;;;;;;17.67;53.13;101683.06;5031547;28;20026;-58
2022/04/25 01:10:10;;;;;;;15.98;3.15;;;;;;;17.51;53.06;101689.97;5032214;28;20034;-58
2022/04/25 01:12:37;;;;;;;16.42;4.32;;;;;;;17.41;53.87;101671.59;5031580;28;20100;-58
2022/04/25 01:15:07;;;;;;;9.27;2.55;;;;;;;17.64;53.13;101673.53;5031658;28;20094;-58
2022/04/25 01:17:33;;;;;;;11.77;2.97;;;;;;;17.29;53.71;101675.31;5032070;28;20041;-58
2022/04/25 01:20:00;;;;;;;11.98;3.33;;;;;;;16.91;54.38;101673.75;5031466;28;20067;-58
2022/04/25 01:22:47;;;;;;;16.42;3.40;;;;;;;17.47;54.73;101667.13;5031754;28;20025;-59
2022/04/25 01:28:01;;;;;;;20.55;3.80;;;;;;;17.41;53.10;101655.34;4980201;28;1477652;-58
2022/04/25 01:30:31;;;;;;;14.18;3.00;;;;;;;17.51;52.98;101659.38;5031612;28;20068;-58
2022/04/25 01:32:58;;;;;;;10.40;3.08;;;;;;;17.56;53.03;101659.50;5033041;28;20021;-58
2022/04/25 01:35:25;;;;;;;12.73;2.88;;;;;;;17.64;53.64;101654.56;5032646;28;20025;-58
2022/04/25 01:37:51;;;;;;;9.77;3.85;;;;;;;17.63;53.42;101660.22;5032530;28;20142;-58
2022/04/25 01:40:17;;;;;;;15.05;3.40;;;;;;;17.62;53.56;101656.69;5032177;28;20393;-58
2022/04/25 01:42:44;;;;;;;12.68;4.05;;;;;;;17.37;54.18;101656.03;5032645;28;20072;-58
2022/04/25 01:45:10;;;;;;;14.40;3.67;;;;;;;17.39;54.78;101659.34;5032376;28;20095;-58
2022/04/25 01:47:37;;;;;;;20.30;8.35;;;;;;;17.48;54.77;101657.94;5032720;28;20033;-58
2022/04/25 01:50:04;;;;;;;11.85;5.40;;;;;;;17.49;54.85;101654.22;5032059;28;20048;-59
2022/04/25 01:52:32;;;;;;;14.48;6.60;;;;;;;17.31;55.44;101657.78;5034347;28;20026;-58
2022/04/25 01:55:01;;;;;;;13.57;5.55;;;;;;;16.74;57.64;101660.03;5036181;28;20033;-58
2022/04/25 01:57:28;;;;;;;16.08;5.50;;;;;;;16.68;57.78;101654.69;5035917;28;20044;-58
2022/04/25 01:59:55;;;;;;;14.63;3.85;;;;;;;16.81;56.97;101649.94;5035865;28;20057;-58
2022/04/25 02:02:24;;;;;;;13.65;3.50;;;;;;;16.46;57.81;101662.41;5036038;28;20029;-58
2022/04/25 02:04:51;;;;;;;13.40;3.58;;;;;;;16.37;58.21;101660.00;5035881;28;20493;-58
2022/04/25 02:07:18;;;;;;;12.05;3.45;;;;;;;16.12;59.76;101661.09;5035998;28;20033;-59
2022/04/25 02:09:44;;;;;;;17.48;3.80;;;;;;;15.86;60.48;101665.69;5035607;28;20515;-58
2022/04/25 02:12:11;;;;;;;16.77;4.25;;;;;;;15.27;62.14;101664.25;5035606;28;20029;-58
2022/04/25 02:14:38;;;;;;;10.82;3.38;;;;;;;15.25;62.65;101669.84;5035510;28;20417;-58
2022/04/25 02:17:04;;;;;;;15.05;3.28;;;;;;;15.40;61.99;101666.03;5035633;28;20036;-58
2022/04/25 02:19:35;;;;;;;10.05;3.47;;;;;;;15.38;61.99;101657.31;5035659;28;20121;-58
2022/04/25 02:22:01;;;;;;;14.85;4.15;;;;;;;15.01;63.25;101663.34;5035540;28;20481;-58
2022/04/25 02:24:27;;;;;;;14.60;3.20;;;;;;;14.96;63.19;101660.47;5035538;28;20091;-58
2022/04/25 02:26:53;;;;;;;16.77;3.88;;;;;;;14.99;63.62;101659.19;5036351;28;20033;-58
2022/04/25 02:29:22;;;;;;;16.90;3.55;;;;;;;14.78;64.23;101653.09;5035086;28;20046;-58
2022/04/25 02:31:48;;;;;;;15.15;3.40;;;;;;;14.67;64.52;101661.00;5035312;28;20037;-58
2022/04/25 02:34:15;;;;;;;14.63;3.92;;;;;;;14.49;64.73;101653.59;5035124;28;20033;-58
2022/04/25 02:36:41;;;;;;;12.73;3.80;;;;;;;14.25;65.29;101655.91;5035307;28;20500;-58
2022/04/25 02:39:07;;;;;;;18.15;4.10;;;;;;;14.37;64.92;101658.78;5035345;28;20466;-58
2022/04/25 02:41:33;;;;;;;11.82;3.72;;;;;;;14.40;64.99;101661.06;5035262;28;20021;-58
2022/04/25 02:44:00;;;;;;;15.60;3.40;;;;;;;14.41;64.54;101660.00;5035440;28;20405;-58
2022/04/25 02:46:26;;;;;;;15.90;3.60;;;;;;;14.07;66.08;101661.13;5035018;28;20032;-58
2022/04/25 02:48:52;;;;;;;16.73;3.55;;;;;;;14.00;66.17;101658.44;5034724;28;20029;-58
2022/04/25 02:51:18;;;;;;;18.73;3.83;;;;;;;13.94;66.11;101661.13;5035519;28;20064;-58
2022/04/25 02:53:45;;;;;;;17.05;3.90;;;;;;;13.85;66.38;101660.50;5035269;28;20029;-58
2022/04/25 02:56:11;;;;;;;11.27;3.33;;;;;;;13.70;67.70;101670.66;5034722;28;20113;-58
2022/04/25 02:58:39;;;;;;;14.25;3.45;;;;;;;13.63;67.39;101669.81;5035235;28;20033;-58
2022/04/25 03:01:06;;;;;;;13.25;3.72;;;;;;;13.85;66.60;101665.91;5035318;28;20049;-58
2022/04/25 03:03:34;;;;;;;16.70;4.53;;;;;;;13.80;67.07;101676.44;5033872;28;20037;-58
2022/04/25 03:06:02;;;;;;;14.68;3.95;;;;;;;13.54;67.92;101681.81;5017196;28;20021;-58
2022/04/25 03:08:29;;;;;;;16.63;4.28;;;;;;;13.50;68.08;101699.41;5034542;28;20052;-58
2022/04/25 03:10:56;;;;;;;15.48;3.85;;;;;;;13.48;68.15;101704.97;5034610;28;20108;-57
2022/04/25 03:13:26;;;;;;;17.58;4.25;;;;;;;13.44;68.33;101707.25;5034593;28;20036;-58
2022/04/25 03:15:53;;;;;;;21.35;4.20;;;;;;;13.41;68.37;101704.97;5034567;28;20029;-58
2022/04/25 03:18:21;;;;;;;18.92;4.05;;;;;;;13.39;68.42;101704.34;5034350;28;20025;-58
2022/04/25 03:20:50;;;;;;;21.85;3.53;;;;;;;13.52;67.62;101705.41;5034207;28;20022;-58
2022/04/25 03:23:21;;;;;;;10.93;2.85;;;;;;;13.38;67.77;101712.59;5033018;28;20029;-57
2022/04/25 03:25:48;;;;;;;11.63;3.00;;;;;;;13.42;67.52;101712.00;5034365;28;20099;-58
2022/04/25 03:28:15;;;;;;;13.27;3.55;;;;;;;13.22;67.69;101711.13;5034160;28;20083;-58
2022/04/25 03:30:41;;;;;;;12.70;3.28;;;;;;;13.30;67.65;101716.31;5034234;28;20033;-58
2022/04/25 03:33:11;;;;;;;16.23;3.15;;;;;;;13.09;68.14;101708.34;5034277;28;20029;-58
2022/04/25 03:35:41;;;;;;;14.55;3.78;;;;;;;13.12;68.52;101718.69;5034064;28;20022;-58
2022/04/25 03:38:08;;;;;;;14.95;3.70;;;;;;;13.10;68.02;101715.38;5034085;28;20029;-58
2022/04/25 03:40:36;;;;;;;24.33;4.38;;;;;;;13.05;68.37;101725.91;5033769;28;20108;-58
2022/04/25 03:43:04;;;;;;;17.00;3.58;;;;;;;12.95;68.76;101716.38;5033878;28;20033;-58
2022/04/25 03:45:31;;;;;;;16.25;3.30;;;;;;;13.09;68.23;101724.47;5033886;28;20104;-58
2022/04/25 03:47:58;;;;;;;16.20;3.22;;;;;;;12.95;68.40;101723.59;5034124;28;20540;-58
2022/04/25 03:50:24;;;;;;;15.20;4.07;;;;;;;13.10;67.99;101718.91;5034013;28;20061;-58
2022/04/25 03:52:50;;;;;;;15.32;3.85;;;;;;;13.26;67.03;101725.78;5033892;28;20068;-58
2022/04/25 03:58:04;;;;;;;10.13;3.47;;;;;;;13.16;66.06;101733.41;5034134;28;20384;-58
2022/04/25 04:00:32;;;;;;;14.27;3.17;;;;;;;13.18;66.17;101734.03;5033571;28;20064;-58
2022/04/25 04:02:59;;;;;;;13.43;3.00;;;;;;;12.98;66.38;101730.41;5033391;28;20018;-58
2022/04/25 04:05:29;;;;;;;13.18;3.42;;;;;;;13.05;66.32;101736.66;5033564;28;20091;-58
2022/04/25 04:07:55;;;;;;;12.75;4.25;;;;;;;12.85;66.57;101736.56;5033653;28;20036;-58
2022/04/25 04:10:21;;;;;;;13.35;3.50;;;;;;;12.92;66.26;101742.78;5033529;28;20036;-58
2022/04/25 04:12:48;;;;;;;13.85;3.20;;;;;;;13.03;66.00;101741.41;5033442;28;20025;-58
2022/04/25 04:15:17;;;;;;;19.17;3.65;;;;;;;12.85;67.06;101742.75;5033227;28;20104;-58
2022/04/25 04:17:43;;;;;;;9.18;3.53;;;;;;;12.91;67.29;101749.19;5033854;28;20057;-58
2022/04/25 04:20:14;;;;;;;10.48;3.50;;;;;;;12.85;67.57;101747.31;5033172;28;20072;-58
2022/04/25 04:22:41;;;;;;;15.30;3.17;;;;;;;12.84;67.54;101738.44;5033543;28;20030;-57
2022/04/25 04:25:09;;;;;;;21.02;3.88;;;;;;;12.67;68.92;101737.94;5033014;28;20036;-58
2022/04/25 04:27:35;;;;;;;15.77;3.33;;;;;;;12.71;68.76;101743.72;5032862;28;20041;-58
2022/04/25 04:30:07;;;;;;;14.57;3.47;;;;;;;12.80;68.47;101750.59;5032803;28;20037;-58
2022/04/25 04:32:34;;;;;;;15.05;3.53;;;;;;;12.72;68.51;101745.41;5033213;28;20429;-58
2022/04/25 04:35:02;;;;;;;16.85;4.18;;;;;;;12.82;68.61;101753.91;5033170;28;20377;-58
2022/04/25 04:37:29;;;;;;;14.43;4.07;;;;;;;12.67;69.69;101758.59;5032974;28;20047;-58
2022/04/25 04:42:40;;;;;;;13.37;3.23;;;;;;;12.81;69.41;101754.94;5033448;28;20033;-58
2022/04/25 04:45:07;;;;;;;21.10;4.03;;;;;;;12.73;69.82;101756.97;5033108;28;20446;-57
2022/04/25 04:47:38;;;;;;;14.50;3.08;;;;;;;12.64;70.21;101767.03;5032869;28;20386;-57
2022/04/25 04:50:06;;;;;;;16.85;3.45;;;;;;;12.56;70.90;101764.50;5032778;28;20112;-57
2022/04/25 04:52:33;;;;;;;12.50;3.47;;;;;;;12.42;70.87;101767.09;5032798;28;20097;-56
2022/04/25 04:55:00;;;;;;;8.30;3.03;;;;;;;12.62;69.91;101769.91;5033019;28;20124;-56
2022/04/25 04:57:26;;;;;;;9.98;3.30;;;;;;;12.53;70.12;101767.56;5033541;28;20021;-56
2022/04/25 04:59:52;;;;;;;12.02;3.55;;;;;;;12.64;69.83;101764.34;5032585;28;20029;-56
2022/04/25 05:02:18;;;;;;;16.02;3.08;;;;;;;12.72;69.56;101771.44;5032658;28;20040;-58
2022/04/25 05:04:45;;;;;;;11.80;3.63;;;;;;;12.58;70.06;101778.56;5033005;28;20104;-58
2022/04/25 05:07:11;;;;;;;11.65;3.20;;;;;;;12.71;69.50;101784.00;5033651;28;20061;-57
2022/04/25 05:09:37;;;;;;;9.63;2.83;;;;;;;12.69;69.45;101780.69;5032957;28;20084;-57
2022/04/25 05:12:04;;;;;;;10.77;3.42;;;;;;;12.72;68.95;101779.50;5033520;28;20032;-57
2022/04/25 05:14:30;;;;;;;11.25;3.10;;;;;;;12.54;69.20;101775.41;5033401;28;20037;-57
2022/04/25 05:16:56;;;;;;;13.38;3.75;;;;;;;12.56;68.68;101786.00;5032790;28;20558;-57
2022/04/25 05:19:23;;;;;;;13.02;3.40;;;;;;;12.62;68.10;101790.56;5033049;28;20036;-57
2022/04/25 05:21:49;;;;;;;21.65;3.20;;;;;;;12.53;68.39;101781.00;5032592;28;20496;-58
2022/04/25 05:24:16;;;;;;;11.25;2.83;;;;;;;12.51;68.02;101789.25;5032467;28;20064;-57
2022/04/25 05:26:42;;;;;;;14.45;3.08;;;;;;;12.54;68.01;101783.47;5033150;28;20030;-57
2022/04/25 05:29:08;;;;;;;16.83;2.95;;;;;;;12.31;68.16;101772.16;5036534;28;20410;-57
2022/04/25 05:31:34;;;;;;;11.27;3.42;;;;;;;12.25;68.70;101776.44;5036571;28;20028;-57
2022/04/25 05:34:01;;;;;;;10.10;2.67;;;;;;;12.28;68.77;101777.94;5036335;28;20030;-57
2022/04/25 05:36:27;;;;;;;26.52;3.38;;;;;;;12.27;68.86;101776.25;5036418;28;20477;-57
2022/04/25 05:38:54;;;;;;;18.20;3.10;;;;;;;12.32;68.53;101771.97;5036292;28;20048;-58
2022/04/25 05:41:20;;;;;;;15.85;2.80;;;;;;;11.98;69.65;101774.56;5036338;28;20041;-57
2022/04/25 05:43:47;;;;;;;22.00;3.35;;;;;;;12.28;68.81;101768.03;5036434;28;20052;-57
2022/04/25 05:46:13;;;;;;;16.33;3.63;;;;;;;12.08;69.16;101765.16;5036042;28;20025;-58
2022/04/25 05:54:08;;;;;;;10.93;2.83;;;;;;;12.06;69.04;101761.03;5036450;28;20037;-57
2022/04/25 05:56:34;;;;;;;15.93;3.42;;;;;;;12.10;68.58;101762.28;5036010;28;20025;-57
2022/04/25 05:59:01;;;;;;;16.15;3.25;;;;;;;11.95;69.59;101754.31;5036107;28;20025;-57
2022/04/25 06:01:27;;;;;;;17.85;3.78;;;;;;;11.85;70.04;101751.97;5036003;28;20030;-56
2022/04/25 06:03:53;;;;;;;14.00;2.75;;;;;;;11.79;70.45;101747.34;5036014;28;20033;-57
2022/04/25 06:06:21;;;;;;;9.82;2.88;;;;;;;11.75;70.45;101742.53;5035895;28;20029;-58
2022/04/25 06:08:48;;;;;;;11.55;3.17;;;;;;;11.71;70.13;101742.06;5035529;28;20504;-57
2022/04/25 06:11:14;;;;;;;12.10;3.08;;;;;;;11.85;69.86;101745.75;5035798;28;20075;-58
2022/04/25 06:13:44;;;;;;;15.13;2.78;;;;;;;11.92;69.53;101746.66;5036231;28;20053;-57
2022/04/25 06:16:11;;;;;;;18.25;3.50;;;;;;;11.88;69.24;101750.72;5035775;28;20026;-57
2022/04/25 06:18:37;;;;;;;9.15;3.08;;;;;;;11.94;69.17;101747.31;5035941;28;20033;-57
2022/04/25 06:21:04;;;;;;;15.45;3.40;;;;;;;11.92;69.07;101743.97;5035828;28;20017;-58
2022/04/25 06:23:30;;;;;;;14.10;3.10;;;;;;;11.91;69.30;101742.31;5035562;28;20022;-58
2022/04/25 06:25:57;;;;;;;12.05;3.00;;;;;;;12.00;68.69;101740.34;5035646;28;20502;-58
2022/04/25 06:28:26;;;;;;;9.57;3.22;;;;;;;11.85;69.11;101730.50;5035232;28;20053;-57
2022/04/25 06:30:54;;;;;;;11.20;3.00;;;;;;;11.80;69.17;101732.88;5035477;28;20024;-58
2022/04/25 06:33:20;;;;;;;12.85;2.95;;;;;;;12.01;68.34;101733.94;5035656;28;20025;-57
2022/04/25 06:35:49;;;;;;;20.52;2.83;;;;;;;11.72;69.27;101732.22;5035505;28;20100;-57
2022/04/25 06:38:15;;;;;;;14.60;3.42;;;;;;;11.83;68.89;101734.41;5035581;28;20029;-58
2022/04/25 06:40:42;;;;;;;13.68;3.20;;;;;;;11.97;68.17;101738.03;5035287;28;20473;-58
2022/04/25 06:43:09;;;;;;;14.73;3.38;;;;;;;11.79;69.05;101733.91;5035162;28;20030;-57
2022/04/25 06:45:35;;;;;;;16.88;3.67;;;;;;;11.64;69.77;101733.16;5035133;28;20032;-57
2022/04/25 06:48:01;;;;;;;12.48;2.67;;;;;;;11.63;70.06;101726.13;5035260;28;20121;-57
2022/04/25 06:50:28;;;;;;;14.75;2.53;;;;;;;11.83;69.29;101729.88;5034874;28;20095;-58
2022/04/25 06:52:54;;;;;;;13.52;3.03;;;;;;;11.79;69.15;101728.56;5035357;28;20112;-58
2022/04/25 06:55:20;;;;;;;12.45;2.78;;;;;;;11.83;68.92;101737.09;5034957;28;20021;-57
2022/04/25 06:57:52;;;;;;;11.65;2.85;;;;;;;11.91;68.24;101728.91;5034786;28;20025;-57
2022/04/25 07:00:19;;;;;;;12.38;2.80;;;;;;;11.93;68.06;101726.00;5035321;28;20029;-57
2022/04/25 07:02:46;;;;;;;15.13;3.28;;;;;;;11.83;68.24;101726.34;5034937;28;20021;-57
2022/04/25 07:05:12;;;;;;;15.02;3.08;;;;;;;11.81;68.25;101726.53;5034680;28;20097;-57
2022/04/25 07:07:38;;;;;;;16.58;3.97;;;;;;;11.93;68.12;101723.31;5034558;28;20064;-58
2022/04/25 07:10:06;;;;;;;13.50;3.65;;;;;;;11.90;68.10;101727.25;5035057;28;20117;-57
2022/04/25 07:12:32;;;;;;;12.48;3.30;;;;;;;11.58;68.39;101724.00;5034632;28;20029;-58
2022/04/25 07:14:59;;;;;;;10.40;3.40;;;;;;;11.55;68.20;101728.94;5034571;28;20036;-57
2022/04/25 07:17:26;;;;;;;12.85;2.90;;;;;;;11.58;68.05;101724.00;5034843;28;20025;-57
2022/04/25 07:19:52;;;;;;;12.32;3.10;;;;;;;11.61;67.76;101725.50;5034670;28;20037;-58
2022/04/25 07:30:34;;;;;;;17.25;3.90;;;;;;;11.57;67.53;101718.84;5034667;28;20123;-58
2022/04/25 07:33:01;;;;;;;10.45;2.90;;;;;;;11.44;67.54;101718.69;5034205;28;20030;-57
2022/04/25 07:35:28;;;;;;;12.48;2.95;;;;;;;11.41;67.60;101719.91;5034061;28;20397;-57
2022/04/25 07:37:55;;;;;;;14.63;2.70;;;;;;;11.55;67.42;101718.22;5034202;28;20056;-57
2022/04/25 07:40:23;;;;;;;19.25;4.10;;;;;;;11.52;67.27;101719.41;5034696;28;20037;-58
2022/04/25 07:42:49;;;;;;;14.02;3.55;;;;;;;11.49;67.19;101713.59;5033794;28;20030;-57
2022/04/25 07:45:15;;;;;;;19.25;3.88;;;;;;;11.32;67.82;101729.91;5034023;28;20371;-57
2022/04/25 07:47:45;;;;;;;18.50;4.07;;;;;;;11.33;68.05;101726.25;5034163;28;20021;-57
2022/04/25 07:50:12;;;;;;;15.82;3.30;;;;;;;11.23;68.51;101723.03;5033433;28;20030;-57
2022/04/25 07:52:38;;;;;;;12.63;3.72;;;;;;;11.37;67.78;101732.84;5034023;28;20076;-57
2022/04/25 07:55:09;;;;;;;12.38;3.38;;;;;;;11.29;67.76;101733.00;5034111;28;20072;-57
2022/04/25 07:57:36;;;;;;;18.85;3.55;;;;;;;10.94;69.09;101734.63;5033873;28;20413;-57
2022/04/25 08:00:05;;;;;;;13.60;3.53;;;;;;;11.08;68.97;101735.63;5034488;28;20052;-57
2022/04/25 08:02:31;;;;;;;10.15;3.55;;;;;;;11.26;68.07;101727.16;5033741;28;20040;-57
2022/04/25 08:04:58;;;;;;;13.43;3.60;;;;;;;11.14;68.46;101720.63;5033791;28;20108;-57
2022/04/25 08:07:24;;;;;;;13.60;4.00;;;;;;;10.97;68.79;101726.22;5033774;28;20497;-57
2022/04/25 08:09:51;;;;;;;12.13;3.53;;;;;;;11.04;68.73;101728.97;5033278;28;20044;-58
2022/04/25 08:18:01;;;;;;;9.05;3.60;;;;;;;11.13;68.36;101722.50;5034078;28;20044;-57
2022/04/25 08:20:35;;;;;;;14.73;3.88;;;;;;;11.02;69.16;101725.66;5033219;28;20458;-58
2022/04/25 08:23:04;;;;;;;10.85;3.35;;;;;;;11.10;68.69;101720.16;5033349;28;20029;-58
2022/04/25 08:25:31;;;;;;;12.77;3.50;;;;;;;10.97;69.40;101714.66;5033229;28;20025;-58
2022/04/25 08:27:59;;;;;;;12.90;3.38;;;;;;;11.02;69.67;101713.09;5032784;28;20041;-58
2022/04/25 08:30:25;;;;;;;12.32;3.40;;;;;;;11.13;69.31;101719.81;5033517;28;20033;-58
2022/04/25 08:32:54;;;;;;;16.27;3.30;;;;;;;10.99;69.94;101723.34;5033188;28;20474;-57
2022/04/25 08:35:21;;;;;;;17.05;3.33;;;;;;;10.98;70.19;101716.31;5033119;28;20104;-58
2022/04/25 08:37:48;;;;;;;15.98;3.22;;;;;;;10.98;69.77;101719.00;5033073;28;20413;-58
2022/04/25 08:40:14;;;;;;;17.17;3.85;;;;;;;10.86;71.05;101718.66;5033140;28;20037;-58
2022/04/25 08:42:41;;;;;;;13.23;2.97;;;;;;;10.81;71.01;101711.16;5033010;28;20400;-57
2022/04/25 08:45:09;;;;;;;16.77;3.20;;;;;;;10.69;71.53;101709.97;5032868;28;20017;-57
2022/04/25 08:47:58;;;;;;;14.50;3.60;;;;;;;10.79;71.57;101712.38;5032803;28;20387;-58
2022/04/25 08:50:26;;;;;;;13.98;2.97;;;;;;;10.74;71.67;101704.06;5032742;28;20036;-58
2022/04/25 08:52:56;;;;;;;17.10;3.60;;;;;;;10.71;71.97;101702.59;5033154;28;20469;-57
2022/04/25 08:55:23;;;;;;;14.32;3.53;;;;;;;10.73;71.71;101692.53;5033211;28;20025;-58
2022/04/25 08:57:53;;;;;;;12.13;3.20;;;;;;;10.68;71.95;101696.78;5032782;28;20028;-57
2022/04/25 09:00:19;;;;;;;11.30;2.80;;;;;;;10.78;71.16;101691.97;5032984;28;20044;-58
2022/04/25 09:02:47;;;;;;;13.15;3.13;;;;;;;10.87;71.20;101688.16;5032180;28;20476;-58
2022/04/25 09:05:14;;;;;;;22.17;4.13;;;;;;;10.80;71.18;101687.25;5033003;28;20034;-57
2022/04/25 09:07:42;;;;;;;22.58;4.40;;;;;;;10.58;72.07;101689.03;5032852;28;20018;-57
2022/04/25 09:10:10;;;;;;;13.70;3.85;;;;;;;10.67;71.81;101695.13;5032697;28;20033;-58
2022/04/25 09:12:38;;;;;;;16.10;3.10;;;;;;;10.72;71.66;101696.22;5032673;28;20029;-57
2022/04/25 09:15:06;;;;;;;13.15;3.42;;;;;;;10.72;71.58;101692.72;5032623;28;20029;-58
2022/04/25 09:17:32;;;;;;;12.48;3.28;;;;;;;10.65;71.88;101679.22;5033032;28;20491;-57
2022/04/25 09:19:59;;;;;;;14.95;3.63;;;;;;;10.52;72.77;101676.38;5033114;28;20029;-57
2022/04/25 09:22:36;;;;;;;15.02;3.30;;;;;;;10.76;71.96;101686.78;5032415;28;20037;-57
2022/04/25 09:25:05;;;;;;;14.30;3.65;;;;;;;10.65;71.93;101684.59;5032682;28;20029;-57
2022/04/25 09:27:32;;;;;;;14.35;4.35;;;;;;;10.85;71.35;101682.19;5032569;28;20084;-58
2022/04/25 09:30:14;;;;;;;12.48;3.50;;;;;;;10.62;72.18;101684.16;5032403;28;20029;-57
2022/04/25 09:32:41;;;;;;;18.00;3.53;;;;;;;10.63;72.01;101681.28;5033131;28;20030;-58
2022/04/25 09:35:30;;;;;;;15.27;3.38;;;;;;;10.90;71.19;101685.13;5032235;28;20022;-58
2022/04/25 09:37:58;;;;;;;13.20;3.80;;;;;;;10.69;72.35;101685.06;5032886;28;20025;-58
2022/04/25 09:40:30;;;;;;;15.95;3.72;;;;;;;10.77;72.19;101688.47;5032453;28;20025;-57
2022/04/25 09:43:11;;;;;;;16.52;4.03;;;;;;;10.89;71.56;101674.59;5032494;28;20025;-57
2022/04/25 09:45:42;;;;;;;15.60;4.47;;;;;;;10.81;71.99;101681.72;5031278;28;20080;-57
2022/04/25 09:48:13;;;;;;;11.43;3.40;;;;;;;10.89;71.74;101678.13;5032743;28;20026;-57
2022/04/25 09:50:39;;;;;;;13.90;3.47;;;;;;;11.01;71.17;101683.81;5032404;28;20052;-57
2022/04/25 09:53:07;;;;;;;14.52;3.78;;;;;;;10.95;70.89;101681.88;5032218;28;20028;-58
2022/04/25 09:55:36;;;;;;;13.25;3.28;;;;;;;11.10;70.21;101677.31;5032620;28;20029;-57
2022/04/25 09:58:23;;;;;;;16.63;3.25;;;;;;;10.87;71.34;101671.25;5031042;28;20456;-57
2022/04/25 10:00:53;;;;;;;11.95;3.67;;;;;;;10.94;71.27;101677.53;5032743;28;20040;-57
2022/04/25 10:03:35;;;;;;;10.98;3.28;;;;;;;10.86;71.17;101675.78;5032338;28;20354;-57
2022/04/25 10:06:03;;;;;;;10.80;3.55;;;;;;;11.01;70.78;101673.09;5032302;28;20025;-57
2022/04/25 10:08:34;;;;;;;11.15;3.00;;;;;;;10.93;70.65;101670.50;5032011;28;20029;-57
2022/04/25 10:11:07;;;;;;;12.63;3.50;;;;;;;11.07;69.93;101673.16;5032480;28;20018;-58
2022/04/25 10:13:34;;;;;;;13.00;3.00;;;;;;;11.14;69.91;101667.88;5034107;28;20037;-58
2022/04/25 10:16:02;;;;;;;11.00;3.42;;;;;;;10.87;70.50;101666.75;5035750;28;20029;-57
2022/04/25 10:18:32;;;;;;;15.07;3.40;;;;;;;10.93;70.57;101660.63;5035819;28;20041;-58
2022/04/25 10:21:00;;;;;;;13.65;3.10;;;;;;;10.98;70.23;101674.28;5035715;28;20029;-57
2022/04/25 10:23:26;;;;;;;10.50;3.25;;;;;;;10.99;69.97;101664.41;5035702;28;20025;-57
2022/04/25 10:25:58;;;;;;;13.98;3.10;;;;;;;11.07;69.74;101677.69;5035458;28;20417;-57
2022/04/25 10:28:33;;;;;;;16.52;3.47;;;;;;;11.24;69.26;101667.56;5035262;28;20045;-58
2022/04/25 10:31:14;;;;;;;8.68;2.97;;;;;;;11.19;69.12;101670.81;5035494;28;20482;-58
2022/04/25 10:34:02;;;;;;;13.20;3.95;;;;;;;11.11;69.36;101679.00;5035554;28;20381;-57
2022/04/25 10:36:37;;;;;;;13.02;3.05;;;;;;;11.24;69.11;101673.75;5035329;28;20021;-58
2022/04/25 10:39:22;;;;;;;13.73;2.95;;;;;;;11.17;69.06;101661.31;5035211;28;20477;-58
2022/04/25 10:44:45;;;;;;;11.43;2.88;;;;;;;11.20;68.55;101677.00;5035549;28;20805;-58
2022/04/25 10:47:15;;;;;;;10.50;2.33;;;;;;;11.23;67.76;101668.59;5035326;28;20029;-57
2022/04/25 10:49:52;;;;;;;11.98;3.42;;;;;;;11.20;67.64;101668.97;5034907;28;20025;-57
2022/04/25 10:52:33;;;;;;;10.50;3.50;;;;;;;10.98;68.08;101676.13;5034956;28;20478;-58
2022/04/25 10:55:26;;;;;;;11.05;3.10;;;;;;;11.14;67.72;101675.09;5035069;28;20029;-57
2022/04/25 10:58:05;;;;;;;20.50;3.33;;;;;;;11.14;68.03;101675.91;5035144;28;20068;-57
2022/04/25 11:00:40;;;;;;;13.95;4.32;;;;;;;11.10;68.14;101685.34;5034989;28;20069;-57
2022/04/25 11:03:11;;;;;;;12.13;3.15;;;;;;;11.20;67.89;101672.47;5035287;28;20156;-57
2022/04/25 11:05:40;;;;;;;14.23;3.53;;;;;;;11.22;68.10;101665.09;5034846;28;20397;-57
2022/04/25 11:08:18;;;;;;;9.43;3.65;;;;;;;11.07;68.68;101673.16;5035311;28;20029;-57
2022/04/25 11:10:49;;;;;;;16.90;3.47;;;;;;;11.15;68.97;101664.16;5034906;28;20033;-57
2022/04/25 11:13:19;;;;;;;14.23;3.75;;;;;;;10.96;69.43;101667.47;5034878;28;20540;-57
2022/04/25 11:15:46;;;;;;;10.43;3.65;;;;;;;11.16;69.31;101659.63;5034619;28;20393;-57
2022/04/25 11:18:35;;;;;;;18.20;4.05;;;;;;;11.01;70.02;101667.75;5034697;28;20099;-58
2022/04/25 11:21:07;;;;;;;11.93;3.45;;;;;;;11.10;70.01;101666.59;5034633;28;20048;-57
2022/04/25 11:23:48;;;;;;;14.35;3.67;;;;;;;11.23;70.20;101660.56;5034321;28;20021;-57
2022/04/25 11:26:23;;;;;;;12.65;3.63;;;;;;;11.22;70.06;101670.44;5033884;28;20061;-57
2022/04/25 11:28:58;;;;;;;9.35;3.33;;;;;;;11.18;70.54;101666.47;5034128;28;20064;-57
2022/04/25 11:31:26;;;;;;;12.50;3.83;;;;;;;11.26;70.08;101655.63;5034738;28;20104;-57
2022/04/25 11:33:54;;;;;;;14.73;3.53;;;;;;;11.23;70.25;101666.75;5034447;28;20489;-57
2022/04/25 11:36:22;;;;;;;16.35;3.70;;;;;;;11.33;69.68;101661.91;5034220;28;20478;-58
2022/04/25 11:41:37;;;;;;;16.85;3.78;;;;;;;11.42;69.42;101664.44;5034878;28;20393;-57
2022/04/25 11:44:04;;;;;;;15.27;3.70;;;;;;;11.41;69.54;101666.31;5034043;28;20056;-57
2022/04/25 11:46:32;;;;;;;17.92;4.13;;;;;;;11.29;69.75;101657.94;5034067;28;20051;-57
2022/04/25 11:48:59;;;;;;;14.68;4.50;;;;;;;11.20;70.29;101656.41;5034108;28;20421;-58
2022/04/25 11:51:30;;;;;;;12.32;3.78;;;;;;;11.27;69.95;101651.09;5034184;28;20079;-58
2022/04/25 11:54:03;;;;;;;13.27;3.75;;;;;;;11.19;70.32;101652.06;5034168;28;20478;-57
2022/04/25 11:56:31;;;;;;;18.23;4.35;;;;;;;11.08;70.94;101657.91;5033988;28;20074;-57